sensor_id;sensor_type;location;lat;lon;timestamp;P1;durP1;ratioP1;P2;durP2;ratioP2
2720;SDS011;1368;49.484;11.112;2023-11-18T00:00:09;22.73;;;14.43;;
2720;SDS011;1368;49.484;11.112;2023-11-18T00:02:37;17.97;;;14.90;;
2720;SDS011;1368;49.484;11.112;2023-11-18T00:05:03;25.83;;;15.93;;
2720;SDS011;1368;49.484;11.112;2023-11-18T00:07:29;22.57;;;14.30;;
2720;SDS011;1368;49.484;11.112;2023-11-18T00:09:57;19.77;;;14.97;;
2720;SDS011;1368;49.484;11.112;2023-11-18T00:12:22;23.20;;;16.30;;
2720;SDS011;1368;49.484;11.112;2023-11-18T00:14:49;24.07;;;16.50;;
2720;SDS011;1368;49.484;11.112;2023-11-18T00:17:14;21.90;;;16.57;;
2720;SDS011;1368;49.484;11.112;2023-11-18T00:19:41;20.10;;;14.07;;
2720;SDS011;1368;49.484;11.112;2023-11-18T00:22:07;21.97;;;14.90;;
2720;SDS011;1368;49.484;11.112;2023-11-18T00:24:33;18.83;;;14.20;;
2720;SDS011;1368;49.484;11.112;2023-11-18T00:26:59;18.27;;;14.20;;
2720;SDS011;1368;49.484;11.112;2023-11-18T00:29:30;20.70;;;14.63;;
2720;SDS011;1368;49.484;11.112;2023-11-18T00:32:00;25.60;;;16.53;;
2720;SDS011;1368;49.484;11.112;2023-11-18T00:34:26;23.97;;;17.47;;
2720;SDS011;1368;49.484;11.112;2023-11-18T00:36:53;21.67;;;14.70;;
2720;SDS011;1368;49.484;11.112;2023-11-18T00:39:19;20.20;;;15.40;;
2720;SDS011;1368;49.484;11.112;2023-11-18T00:41:45;24.53;;;17.73;;
2720;SDS011;1368;49.484;11.112;2023-11-18T00:44:11;23.03;;;16.23;;
2720;SDS011;1368;49.484;11.112;2023-11-18T00:46:38;24.67;;;16.13;;
2720;SDS011;1368;49.484;11.112;2023-11-18T00:49:04;21.10;;;14.93;;
2720;SDS011;1368;49.484;11.112;2023-11-18T00:51:30;25.00;;;15.37;;
2720;SDS011;1368;49.484;11.112;2023-11-18T00:53:55;19.57;;;14.77;;
2720;SDS011;1368;49.484;11.112;2023-11-18T00:56:21;25.73;;;15.43;;
2720;SDS011;1368;49.484;11.112;2023-11-18T00:58:49;24.70;;;15.07;;
2720;SDS011;1368;49.484;11.112;2023-11-18T01:01:15;27.47;;;16.07;;
2720;SDS011;1368;49.484;11.112;2023-11-18T01:03:44;23.47;;;16.17;;
2720;SDS011;1368;49.484;11.112;2023-11-18T01:06:10;19.37;;;14.23;;
2720;SDS011;1368;49.484;11.112;2023-11-18T01:08:36;22.17;;;14.90;;
2720;SDS011;1368;49.484;11.112;2023-11-18T01:11:02;20.60;;;14.50;;
2720;SDS011;1368;49.484;11.112;2023-11-18T01:13:29;16.47;;;12.90;;
2720;SDS011;1368;49.484;11.112;2023-11-18T01:15:56;18.70;;;14.80;;
2720;SDS011;1368;49.484;11.112;2023-11-18T01:18:22;21.73;;;14.50;;
2720;SDS011;1368;49.484;11.112;2023-11-18T01:20:48;18.07;;;13.93;;
2720;SDS011;1368;49.484;11.112;2023-11-18T01:23:13;18.20;;;14.00;;
2720;SDS011;1368;49.484;11.112;2023-11-18T01:25:39;20.03;;;14.80;;
2720;SDS011;1368;49.484;11.112;2023-11-18T01:28:06;22.80;;;15.20;;
2720;SDS011;1368;49.484;11.112;2023-11-18T01:30:32;23.37;;;15.80;;
2720;SDS011;1368;49.484;11.112;2023-11-18T01:33:01;18.10;;;14.43;;
2720;SDS011;1368;49.484;11.112;2023-11-18T01:35:27;20.30;;;14.80;;
2720;SDS011;1368;49.484;11.112;2023-11-18T01:37:53;16.17;;;13.37;;
2720;SDS011;1368;49.484;11.112;2023-11-18T01:40:19;14.13;;;12.10;;
2720;SDS011;1368;49.484;11.112;2023-11-18T01:42:45;16.90;;;11.70;;
2720;SDS011;1368;49.484;11.112;2023-11-18T01:45:11;16.20;;;13.43;;
2720;SDS011;1368;49.484;11.112;2023-11-18T01:47:38;19.37;;;12.10;;
2720;SDS011;1368;49.484;11.112;2023-11-18T01:50:05;20.33;;;13.17;;
2720;SDS011;1368;49.484;11.112;2023-11-18T01:52:33;23.70;;;15.73;;
2720;SDS011;1368;49.484;11.112;2023-11-18T01:54:59;21.23;;;14.83;;
2720;SDS011;1368;49.484;11.112;2023-11-18T01:57:25;18.43;;;13.20;;
2720;SDS011;1368;49.484;11.112;2023-11-18T01:59:52;22.00;;;15.80;;
2720;SDS011;1368;49.484;11.112;2023-11-18T02:02:19;22.93;;;15.80;;
2720;SDS011;1368;49.484;11.112;2023-11-18T02:04:46;24.50;;;15.83;;
2720;SDS011;1368;49.484;11.112;2023-11-18T02:07:12;24.23;;;15.47;;
2720;SDS011;1368;49.484;11.112;2023-11-18T02:09:40;23.43;;;15.30;;
2720;SDS011;1368;49.484;11.112;2023-11-18T02:14:51;24.87;;;16.23;;
2720;SDS011;1368;49.484;11.112;2023-11-18T02:17:20;18.70;;;14.63;;
2720;SDS011;1368;49.484;11.112;2023-11-18T02:19:49;20.53;;;14.23;;
2720;SDS011;1368;49.484;11.112;2023-11-18T02:22:17;19.43;;;15.10;;
2720;SDS011;1368;49.484;11.112;2023-11-18T02:24:43;20.03;;;15.50;;
2720;SDS011;1368;49.484;11.112;2023-11-18T02:27:08;25.93;;;14.43;;
2720;SDS011;1368;49.484;11.112;2023-11-18T02:29:38;21.83;;;15.07;;
2720;SDS011;1368;49.484;11.112;2023-11-18T02:32:29;20.60;;;14.07;;
2720;SDS011;1368;49.484;11.112;2023-11-18T02:35:10;19.87;;;14.60;;
2720;SDS011;1368;49.484;11.112;2023-11-18T02:37:37;19.27;;;13.60;;
2720;SDS011;1368;49.484;11.112;2023-11-18T02:40:05;19.63;;;14.53;;
2720;SDS011;1368;49.484;11.112;2023-11-18T02:42:36;22.17;;;15.37;;
2720;SDS011;1368;49.484;11.112;2023-11-18T02:45:03;22.47;;;14.90;;
2720;SDS011;1368;49.484;11.112;2023-11-18T02:47:32;19.10;;;15.03;;
2720;SDS011;1368;49.484;11.112;2023-11-18T02:49:58;21.23;;;15.80;;
2720;SDS011;1368;49.484;11.112;2023-11-18T02:52:30;22.37;;;14.50;;
2720;SDS011;1368;49.484;11.112;2023-11-18T02:54:56;23.43;;;15.10;;
2720;SDS011;1368;49.484;11.112;2023-11-18T02:57:21;18.37;;;14.73;;
2720;SDS011;1368;49.484;11.112;2023-11-18T02:59:47;18.60;;;13.83;;
2720;SDS011;1368;49.484;11.112;2023-11-18T03:02:12;21.63;;;14.40;;
2720;SDS011;1368;49.484;11.112;2023-11-18T03:04:40;22.43;;;15.00;;
2720;SDS011;1368;49.484;11.112;2023-11-18T03:07:09;19.23;;;14.63;;
2720;SDS011;1368;49.484;11.112;2023-11-18T03:09:34;17.43;;;13.87;;
2720;SDS011;1368;49.484;11.112;2023-11-18T03:12:01;22.03;;;16.13;;
2720;SDS011;1368;49.484;11.112;2023-11-18T03:14:27;21.37;;;14.13;;
2720;SDS011;1368;49.484;11.112;2023-11-18T03:16:53;19.47;;;13.70;;
2720;SDS011;1368;49.484;11.112;2023-11-18T03:19:20;24.00;;;15.40;;
2720;SDS011;1368;49.484;11.112;2023-11-18T03:21:50;19.73;;;14.27;;
2720;SDS011;1368;49.484;11.112;2023-11-18T03:24:18;22.20;;;14.40;;
2720;SDS011;1368;49.484;11.112;2023-11-18T03:26:43;17.70;;;13.27;;
2720;SDS011;1368;49.484;11.112;2023-11-18T03:29:09;20.20;;;13.30;;
2720;SDS011;1368;49.484;11.112;2023-11-18T03:31:36;20.90;;;14.73;;
2720;SDS011;1368;49.484;11.112;2023-11-18T03:34:01;18.63;;;13.80;;
2720;SDS011;1368;49.484;11.112;2023-11-18T03:36:27;19.30;;;13.60;;
2720;SDS011;1368;49.484;11.112;2023-11-18T03:38:53;23.17;;;15.27;;
2720;SDS011;1368;49.484;11.112;2023-11-18T03:41:18;19.73;;;14.47;;
2720;SDS011;1368;49.484;11.112;2023-11-18T03:43:44;17.10;;;12.93;;
2720;SDS011;1368;49.484;11.112;2023-11-18T03:46:11;20.97;;;14.33;;
2720;SDS011;1368;49.484;11.112;2023-11-18T03:48:36;21.00;;;14.97;;
2720;SDS011;1368;49.484;11.112;2023-11-18T03:51:02;18.03;;;13.90;;
2720;SDS011;1368;49.484;11.112;2023-11-18T03:53:28;18.80;;;13.87;;
2720;SDS011;1368;49.484;11.112;2023-11-18T03:55:54;25.57;;;14.90;;
2720;SDS011;1368;49.484;11.112;2023-11-18T03:58:20;20.13;;;14.60;;
2720;SDS011;1368;49.484;11.112;2023-11-18T04:00:45;20.70;;;13.20;;
2720;SDS011;1368;49.484;11.112;2023-11-18T04:03:11;18.27;;;13.80;;
2720;SDS011;1368;49.484;11.112;2023-11-18T04:05:37;17.27;;;13.23;;
2720;SDS011;1368;49.484;11.112;2023-11-18T04:08:04;18.83;;;14.13;;
2720;SDS011;1368;49.484;11.112;2023-11-18T04:10:30;24.53;;;13.53;;
2720;SDS011;1368;49.484;11.112;2023-11-18T04:12:55;18.53;;;14.60;;
2720;SDS011;1368;49.484;11.112;2023-11-18T04:15:22;19.70;;;14.17;;
2720;SDS011;1368;49.484;11.112;2023-11-18T04:17:47;20.00;;;13.43;;
2720;SDS011;1368;49.484;11.112;2023-11-18T04:20:13;23.10;;;16.53;;
2720;SDS011;1368;49.484;11.112;2023-11-18T04:22:40;19.43;;;12.83;;
2720;SDS011;1368;49.484;11.112;2023-11-18T04:25:09;19.23;;;14.23;;
2720;SDS011;1368;49.484;11.112;2023-11-18T04:27:36;20.33;;;14.40;;
2720;SDS011;1368;49.484;11.112;2023-11-18T04:30:02;19.97;;;13.23;;
2720;SDS011;1368;49.484;11.112;2023-11-18T04:32:29;21.27;;;12.87;;
2720;SDS011;1368;49.484;11.112;2023-11-18T04:34:57;15.90;;;12.77;;
2720;SDS011;1368;49.484;11.112;2023-11-18T04:37:22;20.00;;;13.90;;
2720;SDS011;1368;49.484;11.112;2023-11-18T04:39:48;16.50;;;12.03;;
2720;SDS011;1368;49.484;11.112;2023-11-18T04:42:13;18.33;;;13.57;;
2720;SDS011;1368;49.484;11.112;2023-11-18T04:44:40;18.77;;;13.53;;
2720;SDS011;1368;49.484;11.112;2023-11-18T04:47:06;16.70;;;11.67;;
2720;SDS011;1368;49.484;11.112;2023-11-18T04:49:32;18.87;;;13.00;;
2720;SDS011;1368;49.484;11.112;2023-11-18T04:51:57;20.77;;;14.10;;
2720;SDS011;1368;49.484;11.112;2023-11-18T04:54:24;18.73;;;13.17;;
2720;SDS011;1368;49.484;11.112;2023-11-18T04:56:49;16.53;;;13.10;;
2720;SDS011;1368;49.484;11.112;2023-11-18T04:59:15;19.47;;;13.93;;
2720;SDS011;1368;49.484;11.112;2023-11-18T05:01:40;20.70;;;15.13;;
2720;SDS011;1368;49.484;11.112;2023-11-18T05:04:06;18.67;;;12.03;;
2720;SDS011;1368;49.484;11.112;2023-11-18T05:06:33;27.20;;;13.67;;
2720;SDS011;1368;49.484;11.112;2023-11-18T05:08:58;16.70;;;12.50;;
2720;SDS011;1368;49.484;11.112;2023-11-18T05:11:24;19.57;;;12.83;;
2720;SDS011;1368;49.484;11.112;2023-11-18T05:13:49;18.90;;;12.40;;
2720;SDS011;1368;49.484;11.112;2023-11-18T05:16:15;19.70;;;13.10;;
2720;SDS011;1368;49.484;11.112;2023-11-18T05:18:41;18.50;;;13.53;;
2720;SDS011;1368;49.484;11.112;2023-11-18T05:21:06;17.30;;;13.27;;
2720;SDS011;1368;49.484;11.112;2023-11-18T05:23:35;19.17;;;13.30;;
2720;SDS011;1368;49.484;11.112;2023-11-18T05:26:01;17.23;;;13.80;;
2720;SDS011;1368;49.484;11.112;2023-11-18T05:28:30;20.97;;;12.67;;
2720;SDS011;1368;49.484;11.112;2023-11-18T05:30:55;17.37;;;13.63;;
2720;SDS011;1368;49.484;11.112;2023-11-18T05:33:23;16.97;;;11.93;;
2720;SDS011;1368;49.484;11.112;2023-11-18T05:35:48;17.77;;;13.00;;
2720;SDS011;1368;49.484;11.112;2023-11-18T05:38:15;22.93;;;12.30;;
2720;SDS011;1368;49.484;11.112;2023-11-18T05:40:46;17.33;;;12.17;;
2720;SDS011;1368;49.484;11.112;2023-11-18T05:43:22;20.67;;;13.00;;
2720;SDS011;1368;49.484;11.112;2023-11-18T05:45:54;19.47;;;12.53;;
2720;SDS011;1368;49.484;11.112;2023-11-18T05:48:39;16.10;;;12.10;;
2720;SDS011;1368;49.484;11.112;2023-11-18T05:51:09;17.10;;;12.03;;
2720;SDS011;1368;49.484;11.112;2023-11-18T05:53:39;15.70;;;11.43;;
2720;SDS011;1368;49.484;11.112;2023-11-18T05:56:05;20.10;;;12.67;;
2720;SDS011;1368;49.484;11.112;2023-11-18T05:58:31;19.97;;;12.40;;
2720;SDS011;1368;49.484;11.112;2023-11-18T06:00:57;18.83;;;11.87;;
2720;SDS011;1368;49.484;11.112;2023-11-18T06:03:23;16.07;;;11.80;;
2720;SDS011;1368;49.484;11.112;2023-11-18T06:05:49;17.27;;;12.00;;
2720;SDS011;1368;49.484;11.112;2023-11-18T06:08:16;19.27;;;12.33;;
2720;SDS011;1368;49.484;11.112;2023-11-18T06:10:42;17.17;;;11.50;;
2720;SDS011;1368;49.484;11.112;2023-11-18T06:13:09;17.23;;;12.03;;
2720;SDS011;1368;49.484;11.112;2023-11-18T06:15:38;18.50;;;11.90;;
2720;SDS011;1368;49.484;11.112;2023-11-18T06:18:04;20.40;;;12.50;;
2720;SDS011;1368;49.484;11.112;2023-11-18T06:20:30;17.70;;;11.90;;
2720;SDS011;1368;49.484;11.112;2023-11-18T06:22:56;14.97;;;11.30;;
2720;SDS011;1368;49.484;11.112;2023-11-18T06:25:22;22.00;;;13.50;;
2720;SDS011;1368;49.484;11.112;2023-11-18T06:27:50;19.27;;;13.37;;
2720;SDS011;1368;49.484;11.112;2023-11-18T06:30:17;23.00;;;12.60;;
2720;SDS011;1368;49.484;11.112;2023-11-18T06:32:44;21.10;;;14.63;;
2720;SDS011;1368;49.484;11.112;2023-11-18T06:35:12;18.00;;;12.07;;
2720;SDS011;1368;49.484;11.112;2023-11-18T06:37:39;24.30;;;14.03;;
2720;SDS011;1368;49.484;11.112;2023-11-18T06:40:05;25.57;;;15.17;;
2720;SDS011;1368;49.484;11.112;2023-11-18T06:42:41;27.67;;;14.67;;
2720;SDS011;1368;49.484;11.112;2023-11-18T06:45:07;26.10;;;15.70;;
2720;SDS011;1368;49.484;11.112;2023-11-18T06:47:34;22.00;;;14.07;;
2720;SDS011;1368;49.484;11.112;2023-11-18T06:50:01;21.47;;;15.83;;
2720;SDS011;1368;49.484;11.112;2023-11-18T06:52:27;22.60;;;14.23;;
2720;SDS011;1368;49.484;11.112;2023-11-18T06:54:53;25.50;;;15.80;;
2720;SDS011;1368;49.484;11.112;2023-11-18T06:57:20;28.47;;;15.63;;
2720;SDS011;1368;49.484;11.112;2023-11-18T06:59:46;32.53;;;15.77;;
2720;SDS011;1368;49.484;11.112;2023-11-18T07:02:12;42.77;;;20.30;;
2720;SDS011;1368;49.484;11.112;2023-11-18T07:04:38;34.87;;;15.80;;
2720;SDS011;1368;49.484;11.112;2023-11-18T07:07:04;23.27;;;16.57;;
2720;SDS011;1368;49.484;11.112;2023-11-18T07:09:29;35.47;;;15.10;;
2720;SDS011;1368;49.484;11.112;2023-11-18T07:12:00;38.90;;;15.73;;
2720;SDS011;1368;49.484;11.112;2023-11-18T07:14:28;47.03;;;17.43;;
2720;SDS011;1368;49.484;11.112;2023-11-18T07:16:54;55.97;;;18.50;;
2720;SDS011;1368;49.484;11.112;2023-11-18T07:19:19;82.47;;;19.90;;
2720;SDS011;1368;49.484;11.112;2023-11-18T07:21:46;63.80;;;20.07;;
2720;SDS011;1368;49.484;11.112;2023-11-18T07:24:12;49.73;;;18.53;;
2720;SDS011;1368;49.484;11.112;2023-11-18T07:26:37;38.20;;;17.20;;
2720;SDS011;1368;49.484;11.112;2023-11-18T07:29:03;66.30;;;20.10;;
2720;SDS011;1368;49.484;11.112;2023-11-18T07:31:28;65.13;;;19.27;;
2720;SDS011;1368;49.484;11.112;2023-11-18T07:33:54;55.33;;;20.17;;
2720;SDS011;1368;49.484;11.112;2023-11-18T07:36:21;70.87;;;23.57;;
2720;SDS011;1368;49.484;11.112;2023-11-18T07:38:47;61.63;;;17.90;;
2720;SDS011;1368;49.484;11.112;2023-11-18T07:41:12;62.17;;;17.40;;
2720;SDS011;1368;49.484;11.112;2023-11-18T07:43:52;37.47;;;16.63;;
2720;SDS011;1368;49.484;11.112;2023-11-18T07:46:19;33.13;;;15.13;;
2720;SDS011;1368;49.484;11.112;2023-11-18T07:48:50;31.23;;;14.77;;
2720;SDS011;1368;49.484;11.112;2023-11-18T07:51:17;36.63;;;15.30;;
2720;SDS011;1368;49.484;11.112;2023-11-18T07:53:46;40.47;;;16.93;;
2720;SDS011;1368;49.484;11.112;2023-11-18T07:56:12;37.90;;;16.07;;
2720;SDS011;1368;49.484;11.112;2023-11-18T07:58:39;30.53;;;17.53;;
2720;SDS011;1368;49.484;11.112;2023-11-18T08:01:10;32.10;;;16.50;;
2720;SDS011;1368;49.484;11.112;2023-11-18T08:03:41;24.63;;;14.37;;
2720;SDS011;1368;49.484;11.112;2023-11-18T08:06:07;29.63;;;15.70;;
2720;SDS011;1368;49.484;11.112;2023-11-18T08:08:33;26.47;;;15.67;;
2720;SDS011;1368;49.484;11.112;2023-11-18T08:10:59;31.43;;;15.20;;
2720;SDS011;1368;49.484;11.112;2023-11-18T08:13:25;40.43;;;14.87;;
2720;SDS011;1368;49.484;11.112;2023-11-18T08:15:51;24.00;;;13.57;;
2720;SDS011;1368;49.484;11.112;2023-11-18T08:18:17;24.93;;;14.90;;
2720;SDS011;1368;49.484;11.112;2023-11-18T08:20:43;26.90;;;16.37;;
2720;SDS011;1368;49.484;11.112;2023-11-18T08:23:09;27.73;;;13.70;;
2720;SDS011;1368;49.484;11.112;2023-11-18T08:25:35;25.93;;;15.50;;
2720;SDS011;1368;49.484;11.112;2023-11-18T08:28:01;22.90;;;14.40;;
2720;SDS011;1368;49.484;11.112;2023-11-18T08:30:28;26.37;;;15.97;;
2720;SDS011;1368;49.484;11.112;2023-11-18T08:32:54;24.57;;;15.10;;
2720;SDS011;1368;49.484;11.112;2023-11-18T08:35:20;26.47;;;13.80;;
2720;SDS011;1368;49.484;11.112;2023-11-18T08:37:46;21.73;;;14.30;;
2720;SDS011;1368;49.484;11.112;2023-11-18T08:40:12;22.80;;;14.80;;
2720;SDS011;1368;49.484;11.112;2023-11-18T08:42:45;26.67;;;15.07;;
2720;SDS011;1368;49.484;11.112;2023-11-18T08:45:19;27.37;;;14.60;;
2720;SDS011;1368;49.484;11.112;2023-11-18T08:47:55;22.37;;;14.33;;
2720;SDS011;1368;49.484;11.112;2023-11-18T08:50:21;19.70;;;12.53;;
2720;SDS011;1368;49.484;11.112;2023-11-18T08:52:51;24.20;;;15.57;;
2720;SDS011;1368;49.484;11.112;2023-11-18T08:55:27;29.03;;;15.53;;
2720;SDS011;1368;49.484;11.112;2023-11-18T08:58:06;24.30;;;14.77;;
2720;SDS011;1368;49.484;11.112;2023-11-18T09:00:51;23.90;;;14.57;;
2720;SDS011;1368;49.484;11.112;2023-11-18T09:03:20;28.20;;;17.50;;
2720;SDS011;1368;49.484;11.112;2023-11-18T09:05:59;20.83;;;13.70;;
2720;SDS011;1368;49.484;11.112;2023-11-18T09:08:36;23.33;;;14.03;;
2720;SDS011;1368;49.484;11.112;2023-11-18T09:11:16;21.73;;;14.63;;
2720;SDS011;1368;49.484;11.112;2023-11-18T09:13:48;25.70;;;14.20;;
2720;SDS011;1368;49.484;11.112;2023-11-18T09:16:19;28.17;;;16.47;;
2720;SDS011;1368;49.484;11.112;2023-11-18T09:18:47;23.40;;;15.57;;
2720;SDS011;1368;49.484;11.112;2023-11-18T09:21:13;21.53;;;14.03;;
2720;SDS011;1368;49.484;11.112;2023-11-18T09:23:44;24.63;;;15.20;;
2720;SDS011;1368;49.484;11.112;2023-11-18T09:26:12;22.03;;;15.10;;
2720;SDS011;1368;49.484;11.112;2023-11-18T09:28:39;24.60;;;15.93;;
2720;SDS011;1368;49.484;11.112;2023-11-18T09:31:05;23.50;;;15.47;;
2720;SDS011;1368;49.484;11.112;2023-11-18T09:33:36;23.30;;;15.83;;
2720;SDS011;1368;49.484;11.112;2023-11-18T09:36:03;21.43;;;14.77;;
2720;SDS011;1368;49.484;11.112;2023-11-18T09:38:33;24.27;;;15.07;;
2720;SDS011;1368;49.484;11.112;2023-11-18T09:41:05;21.47;;;14.93;;
2720;SDS011;1368;49.484;11.112;2023-11-18T09:43:35;22.90;;;14.97;;
2720;SDS011;1368;49.484;11.112;2023-11-18T09:46:13;24.40;;;15.27;;
2720;SDS011;1368;49.484;11.112;2023-11-18T09:48:48;28.73;;;17.60;;
2720;SDS011;1368;49.484;11.112;2023-11-18T09:51:39;28.80;;;17.17;;
2720;SDS011;1368;49.484;11.112;2023-11-18T09:54:12;27.40;;;17.10;;
2720;SDS011;1368;49.484;11.112;2023-11-18T09:56:56;25.67;;;16.27;;
2720;SDS011;1368;49.484;11.112;2023-11-18T09:59:46;28.63;;;18.37;;
2720;SDS011;1368;49.484;11.112;2023-11-18T10:02:23;26.60;;;16.50;;
2720;SDS011;1368;49.484;11.112;2023-11-18T10:04:49;24.93;;;16.90;;
2720;SDS011;1368;49.484;11.112;2023-11-18T10:07:22;27.73;;;17.87;;
2720;SDS011;1368;49.484;11.112;2023-11-18T10:09:52;25.67;;;17.67;;
2720;SDS011;1368;49.484;11.112;2023-11-18T10:12:22;24.07;;;16.53;;
2720;SDS011;1368;49.484;11.112;2023-11-18T10:14:49;23.70;;;16.63;;
2720;SDS011;1368;49.484;11.112;2023-11-18T10:17:17;25.70;;;17.00;;
2720;SDS011;1368;49.484;11.112;2023-11-18T10:19:57;26.00;;;15.63;;
2720;SDS011;1368;49.484;11.112;2023-11-18T10:22:28;23.40;;;16.47;;
2720;SDS011;1368;49.484;11.112;2023-11-18T10:24:54;23.03;;;15.63;;
2720;SDS011;1368;49.484;11.112;2023-11-18T10:27:22;21.43;;;15.40;;
2720;SDS011;1368;49.484;11.112;2023-11-18T10:29:50;29.37;;;18.87;;
2720;SDS011;1368;49.484;11.112;2023-11-18T10:32:19;23.87;;;16.77;;
2720;SDS011;1368;49.484;11.112;2023-11-18T10:34:47;26.47;;;17.80;;
2720;SDS011;1368;49.484;11.112;2023-11-18T10:37:16;25.80;;;17.60;;
2720;SDS011;1368;49.484;11.112;2023-11-18T10:39:42;27.10;;;18.83;;
2720;SDS011;1368;49.484;11.112;2023-11-18T10:42:12;26.20;;;17.90;;
2720;SDS011;1368;49.484;11.112;2023-11-18T10:44:37;25.73;;;18.07;;
2720;SDS011;1368;49.484;11.112;2023-11-18T10:47:03;26.77;;;18.37;;
2720;SDS011;1368;49.484;11.112;2023-11-18T10:49:28;27.20;;;18.77;;
2720;SDS011;1368;49.484;11.112;2023-11-18T10:52:01;25.60;;;18.57;;
2720;SDS011;1368;49.484;11.112;2023-11-18T10:54:28;25.47;;;18.30;;
2720;SDS011;1368;49.484;11.112;2023-11-18T10:56:53;27.93;;;19.60;;
2720;SDS011;1368;49.484;11.112;2023-11-18T10:59:22;28.60;;;17.93;;
2720;SDS011;1368;49.484;11.112;2023-11-18T11:01:47;29.07;;;19.90;;
2720;SDS011;1368;49.484;11.112;2023-11-18T11:04:16;24.87;;;17.30;;
2720;SDS011;1368;49.484;11.112;2023-11-18T11:06:45;28.13;;;19.97;;
2720;SDS011;1368;49.484;11.112;2023-11-18T11:09:17;27.17;;;19.93;;
2720;SDS011;1368;49.484;11.112;2023-11-18T11:11:53;31.33;;;19.03;;
2720;SDS011;1368;49.484;11.112;2023-11-18T11:14:21;25.47;;;18.10;;
2720;SDS011;1368;49.484;11.112;2023-11-18T11:16:54;25.80;;;18.70;;
2720;SDS011;1368;49.484;11.112;2023-11-18T11:19:24;26.03;;;16.90;;
2720;SDS011;1368;49.484;11.112;2023-11-18T11:22:00;25.40;;;18.63;;
2720;SDS011;1368;49.484;11.112;2023-11-18T11:27:59;31.73;;;19.00;;
2720;SDS011;1368;49.484;11.112;2023-11-18T11:30:45;28.30;;;19.37;;
2720;SDS011;1368;49.484;11.112;2023-11-18T11:33:17;23.43;;;16.70;;
2720;SDS011;1368;49.484;11.112;2023-11-18T11:35:55;31.77;;;20.70;;
2720;SDS011;1368;49.484;11.112;2023-11-18T11:38:24;23.10;;;17.40;;
2720;SDS011;1368;49.484;11.112;2023-11-18T11:40:51;26.13;;;19.97;;
2720;SDS011;1368;49.484;11.112;2023-11-18T11:43:19;29.37;;;18.77;;
2720;SDS011;1368;49.484;11.112;2023-11-18T11:45:52;26.20;;;19.10;;
2720;SDS011;1368;49.484;11.112;2023-11-18T11:48:20;30.73;;;19.90;;
2720;SDS011;1368;49.484;11.112;2023-11-18T11:50:55;26.20;;;19.90;;
2720;SDS011;1368;49.484;11.112;2023-11-18T11:53:40;25.63;;;19.87;;
2720;SDS011;1368;49.484;11.112;2023-11-18T11:56:10;25.97;;;19.00;;
2720;SDS011;1368;49.484;11.112;2023-11-18T11:58:39;27.80;;;21.00;;
2720;SDS011;1368;49.484;11.112;2023-11-18T12:01:21;23.87;;;19.50;;
2720;SDS011;1368;49.484;11.112;2023-11-18T12:03:58;24.10;;;18.00;;
2720;SDS011;1368;49.484;11.112;2023-11-18T12:06:31;27.30;;;19.60;;
2720;SDS011;1368;49.484;11.112;2023-11-18T12:09:08;24.33;;;19.10;;
2720;SDS011;1368;49.484;11.112;2023-11-18T12:11:37;21.77;;;17.43;;
2720;SDS011;1368;49.484;11.112;2023-11-18T12:14:11;22.07;;;17.67;;
2720;SDS011;1368;49.484;11.112;2023-11-18T12:16:57;26.60;;;19.30;;
2720;SDS011;1368;49.484;11.112;2023-11-18T12:19:37;22.30;;;17.90;;
2720;SDS011;1368;49.484;11.112;2023-11-18T12:22:12;21.87;;;17.73;;
2720;SDS011;1368;49.484;11.112;2023-11-18T12:24:42;23.37;;;17.90;;
2720;SDS011;1368;49.484;11.112;2023-11-18T12:32:58;22.23;;;17.53;;
2720;SDS011;1368;49.484;11.112;2023-11-18T12:35:26;24.43;;;18.23;;
2720;SDS011;1368;49.484;11.112;2023-11-18T12:40:54;23.90;;;18.60;;
2720;SDS011;1368;49.484;11.112;2023-11-18T12:43:31;22.53;;;18.23;;
2720;SDS011;1368;49.484;11.112;2023-11-18T12:46:32;23.57;;;18.00;;
2720;SDS011;1368;49.484;11.112;2023-11-18T12:49:14;23.20;;;18.20;;
2720;SDS011;1368;49.484;11.112;2023-11-18T12:51:42;24.23;;;18.37;;
2720;SDS011;1368;49.484;11.112;2023-11-18T12:54:08;22.47;;;16.80;;
2720;SDS011;1368;49.484;11.112;2023-11-18T12:56:37;23.40;;;18.10;;
2720;SDS011;1368;49.484;11.112;2023-11-18T12:59:03;22.13;;;17.93;;
2720;SDS011;1368;49.484;11.112;2023-11-18T13:01:32;26.57;;;18.50;;
2720;SDS011;1368;49.484;11.112;2023-11-18T13:04:01;23.43;;;18.20;;
2720;SDS011;1368;49.484;11.112;2023-11-18T13:06:29;26.53;;;18.40;;
2720;SDS011;1368;49.484;11.112;2023-11-18T13:08:55;23.33;;;18.93;;
2720;SDS011;1368;49.484;11.112;2023-11-18T13:11:24;24.27;;;18.33;;
2720;SDS011;1368;49.484;11.112;2023-11-18T13:13:53;22.20;;;17.90;;
2720;SDS011;1368;49.484;11.112;2023-11-18T13:16:18;23.83;;;17.00;;
2720;SDS011;1368;49.484;11.112;2023-11-18T13:18:45;24.43;;;16.90;;
2720;SDS011;1368;49.484;11.112;2023-11-18T13:21:18;24.63;;;16.73;;
2720;SDS011;1368;49.484;11.112;2023-11-18T13:23:45;21.20;;;17.17;;
2720;SDS011;1368;49.484;11.112;2023-11-18T13:26:15;22.87;;;16.70;;
2720;SDS011;1368;49.484;11.112;2023-11-18T13:28:42;23.67;;;17.90;;
2720;SDS011;1368;49.484;11.112;2023-11-18T13:31:10;21.83;;;16.40;;
2720;SDS011;1368;49.484;11.112;2023-11-18T13:33:37;22.53;;;16.40;;
2720;SDS011;1368;49.484;11.112;2023-11-18T13:36:06;23.07;;;16.93;;
2720;SDS011;1368;49.484;11.112;2023-11-18T13:38:35;22.40;;;17.50;;
2720;SDS011;1368;49.484;11.112;2023-11-18T13:41:01;21.67;;;17.73;;
2720;SDS011;1368;49.484;11.112;2023-11-18T13:43:28;21.40;;;16.90;;
2720;SDS011;1368;49.484;11.112;2023-11-18T13:46:10;20.40;;;16.07;;
2720;SDS011;1368;49.484;11.112;2023-11-18T13:48:37;19.03;;;14.70;;
2720;SDS011;1368;49.484;11.112;2023-11-18T13:51:05;16.37;;;11.53;;
2720;SDS011;1368;49.484;11.112;2023-11-18T13:53:37;15.93;;;11.43;;
2720;SDS011;1368;49.484;11.112;2023-11-18T13:56:05;11.43;;;9.97;;
2720;SDS011;1368;49.484;11.112;2023-11-18T13:58:33;10.50;;;8.93;;
2720;SDS011;1368;49.484;11.112;2023-11-18T14:01:00;9.10;;;7.93;;
2720;SDS011;1368;49.484;11.112;2023-11-18T14:03:25;8.53;;;7.50;;
2720;SDS011;1368;49.484;11.112;2023-11-18T14:05:51;9.40;;;7.70;;
2720;SDS011;1368;49.484;11.112;2023-11-18T14:08:17;10.00;;;7.30;;
2720;SDS011;1368;49.484;11.112;2023-11-18T14:10:45;9.73;;;6.50;;
2720;SDS011;1368;49.484;11.112;2023-11-18T14:13:10;8.37;;;7.17;;
2720;SDS011;1368;49.484;11.112;2023-11-18T14:15:41;8.40;;;6.50;;
2720;SDS011;1368;49.484;11.112;2023-11-18T14:18:10;8.23;;;6.33;;
2720;SDS011;1368;49.484;11.112;2023-11-18T14:20:35;9.23;;;5.97;;
2720;SDS011;1368;49.484;11.112;2023-11-18T14:23:02;9.90;;;6.97;;
2720;SDS011;1368;49.484;11.112;2023-11-18T14:25:31;8.40;;;6.07;;
2720;SDS011;1368;49.484;11.112;2023-11-18T14:27:57;7.13;;;5.80;;
2720;SDS011;1368;49.484;11.112;2023-11-18T14:30:23;9.43;;;6.30;;
2720;SDS011;1368;49.484;11.112;2023-11-18T14:32:52;8.17;;;6.40;;
2720;SDS011;1368;49.484;11.112;2023-11-18T14:35:17;7.40;;;6.30;;
2720;SDS011;1368;49.484;11.112;2023-11-18T14:40:48;13.40;;;9.17;;
2720;SDS011;1368;49.484;11.112;2023-11-18T14:43:14;12.67;;;8.70;;
2720;SDS011;1368;49.484;11.112;2023-11-18T14:45:40;10.57;;;8.67;;
2720;SDS011;1368;49.484;11.112;2023-11-18T14:48:05;17.67;;;10.63;;
2720;SDS011;1368;49.484;11.112;2023-11-18T14:50:32;15.33;;;11.80;;
2720;SDS011;1368;49.484;11.112;2023-11-18T14:53:00;14.03;;;9.77;;
2720;SDS011;1368;49.484;11.112;2023-11-18T14:55:26;16.10;;;10.00;;
2720;SDS011;1368;49.484;11.112;2023-11-18T14:57:52;14.23;;;10.33;;
2720;SDS011;1368;49.484;11.112;2023-11-18T15:00:17;10.70;;;7.30;;